sensor_id;sensor_type;location;lat;lon;timestamp;temperature;humidity
18794;DHT22;29610;49.022;12.114;2023-04-08T00:02:40;5.00;82.60
18794;DHT22;29610;49.022;12.114;2023-04-08T00:05:29;4.90;83.10
18794;DHT22;29610;49.022;12.114;2023-04-08T00:08:18;4.80;83.50
18794;DHT22;29610;49.022;12.114;2023-04-08T00:11:07;4.80;83.70
18794;DHT22;29610;49.022;12.114;2023-04-08T00:13:57;4.70;84.10
18794;DHT22;29610;49.022;12.114;2023-04-08T00:16:47;4.60;84.40
18794;DHT22;29610;49.022;12.114;2023-04-08T00:19:36;4.60;84.30
18794;DHT22;29610;49.022;12.114;2023-04-08T00:22:25;4.50;84.10
18794;DHT22;29610;49.022;12.114;2023-04-08T00:25:14;4.50;84.10
18794;DHT22;29610;49.022;12.114;2023-04-08T00:28:03;4.50;83.90
18794;DHT22;29610;49.022;12.114;2023-04-08T00:30:53;4.40;83.90
18794;DHT22;29610;49.022;12.114;2023-04-08T00:33:42;4.40;83.10
18794;DHT22;29610;49.022;12.114;2023-04-08T00:36:32;4.50;82.50
18794;DHT22;29610;49.022;12.114;2023-04-08T00:39:22;4.50;82.50
18794;DHT22;29610;49.022;12.114;2023-04-08T00:42:11;4.40;83.60
18794;DHT22;29610;49.022;12.114;2023-04-08T00:45:00;4.30;84.00
18794;DHT22;29610;49.022;12.114;2023-04-08T00:47:50;4.20;84.40
18794;DHT22;29610;49.022;12.114;2023-04-08T00:50:39;4.20;85.00
18794;DHT22;29610;49.022;12.114;2023-04-08T00:53:30;4.10;85.40
18794;DHT22;29610;49.022;12.114;2023-04-08T00:56:20;4.10;85.80
18794;DHT22;29610;49.022;12.114;2023-04-08T00:59:09;4.00;85.90
18794;DHT22;29610;49.022;12.114;2023-04-08T01:02:04;3.90;86.20
18794;DHT22;29610;49.022;12.114;2023-04-08T01:05:03;4.00;85.00
18794;DHT22;29610;49.022;12.114;2023-04-08T01:07:54;4.00;83.70
18794;DHT22;29610;49.022;12.114;2023-04-08T01:10:49;4.00;83.20
18794;DHT22;29610;49.022;12.114;2023-04-08T01:13:43;4.00;83.10
18794;DHT22;29610;49.022;12.114;2023-04-08T01:16:34;3.90;83.20
18794;DHT22;29610;49.022;12.114;2023-04-08T01:19:30;3.90;83.30
18794;DHT22;29610;49.022;12.114;2023-04-08T01:22:28;3.90;83.40
18794;DHT22;29610;49.022;12.114;2023-04-08T01:25:30;3.70;84.20
18794;DHT22;29610;49.022;12.114;2023-04-08T01:28:23;3.50;84.40
18794;DHT22;29610;49.022;12.114;2023-04-08T01:31:16;3.20;85.20
18794;DHT22;29610;49.022;12.114;2023-04-08T01:34:06;3.20;86.10
18794;DHT22;29610;49.022;12.114;2023-04-08T01:36:58;3.30;85.60
18794;DHT22;29610;49.022;12.114;2023-04-08T01:39:48;3.40;85.50
18794;DHT22;29610;49.022;12.114;2023-04-08T01:42:38;3.50;85.70
18794;DHT22;29610;49.022;12.114;2023-04-08T01:45:32;3.70;86.00
18794;DHT22;29610;49.022;12.114;2023-04-08T01:48:21;3.70;85.00
18794;DHT22;29610;49.022;12.114;2023-04-08T01:51:11;3.70;84.40
18794;DHT22;29610;49.022;12.114;2023-04-08T01:54:01;3.80;83.80
18794;DHT22;29610;49.022;12.114;2023-04-08T01:56:50;3.90;83.20
18794;DHT22;29610;49.022;12.114;2023-04-08T01:59:46;3.90;83.00
18794;DHT22;29610;49.022;12.114;2023-04-08T02:02:41;4.00;82.60
18794;DHT22;29610;49.022;12.114;2023-04-08T02:05:32;3.90;82.90
18794;DHT22;29610;49.022;12.114;2023-04-08T02:08:22;3.90;83.10
18794;DHT22;29610;49.022;12.114;2023-04-08T02:11:11;3.90;83.50
18794;DHT22;29610;49.022;12.114;2023-04-08T02:14:00;3.80;83.70
18794;DHT22;29610;49.022;12.114;2023-04-08T02:16:52;3.90;83.70
18794;DHT22;29610;49.022;12.114;2023-04-08T02:19:47;4.00;84.10
18794;DHT22;29610;49.022;12.114;2023-04-08T02:22:52;4.00;83.00
18794;DHT22;29610;49.022;12.114;2023-04-08T02:25:48;4.10;82.70
18794;DHT22;29610;49.022;12.114;2023-04-08T02:28:41;4.20;82.80
18794;DHT22;29610;49.022;12.114;2023-04-08T02:31:31;4.30;82.40
18794;DHT22;29610;49.022;12.114;2023-04-08T02:34:21;4.30;82.10
18794;DHT22;29610;49.022;12.114;2023-04-08T02:37:14;4.50;81.80
18794;DHT22;29610;49.022;12.114;2023-04-08T02:40:04;4.50;81.20
18794;DHT22;29610;49.022;12.114;2023-04-08T02:43:10;4.70;81.30
18794;DHT22;29610;49.022;12.114;2023-04-08T02:46:00;4.80;81.40
18794;DHT22;29610;49.022;12.114;2023-04-08T02:48:50;4.90;81.50
18794;DHT22;29610;49.022;12.114;2023-04-08T02:51:39;4.90;80.70
18794;DHT22;29610;49.022;12.114;2023-04-08T02:54:30;4.90;80.30
18794;DHT22;29610;49.022;12.114;2023-04-08T02:57:18;5.00;80.10
18794;DHT22;29610;49.022;12.114;2023-04-08T03:00:08;5.00;79.40
18794;DHT22;29610;49.022;12.114;2023-04-08T03:02:58;5.10;79.50
18794;DHT22;29610;49.022;12.114;2023-04-08T03:05:47;5.10;79.40
18794;DHT22;29610;49.022;12.114;2023-04-08T03:08:36;5.10;79.30
18794;DHT22;29610;49.022;12.114;2023-04-08T03:11:27;5.70;79.90
18794;DHT22;29610;49.022;12.114;2023-04-08T03:14:15;5.40;79.40
18794;DHT22;29610;49.022;12.114;2023-04-08T03:17:04;5.20;79.20
18794;DHT22;29610;49.022;12.114;2023-04-08T03:19:53;5.20;79.10
18794;DHT22;29610;49.022;12.114;2023-04-08T03:22:42;5.20;79.20
18794;DHT22;29610;49.022;12.114;2023-04-08T03:25:31;5.10;79.30
18794;DHT22;29610;49.022;12.114;2023-04-08T03:28:21;5.10;79.10
18794;DHT22;29610;49.022;12.114;2023-04-08T03:31:10;5.10;79.30
18794;DHT22;29610;49.022;12.114;2023-04-08T03:33:59;5.10;79.50
18794;DHT22;29610;49.022;12.114;2023-04-08T03:36:48;5.00;79.80
18794;DHT22;29610;49.022;12.114;2023-04-08T03:39:37;5.00;79.60
18794;DHT22;29610;49.022;12.114;2023-04-08T03:42:26;5.00;79.80
18794;DHT22;29610;49.022;12.114;2023-04-08T03:45:16;5.00;80.20
18794;DHT22;29610;49.022;12.114;2023-04-08T03:48:05;4.90;80.10
18794;DHT22;29610;49.022;12.114;2023-04-08T03:50:55;4.90;80.20
18794;DHT22;29610;49.022;12.114;2023-04-08T03:53:44;4.90;80.40
18794;DHT22;29610;49.022;12.114;2023-04-08T03:56:34;4.90;80.40
18794;DHT22;29610;49.022;12.114;2023-04-08T03:59:23;4.90;80.10
18794;DHT22;29610;49.022;12.114;2023-04-08T04:02:13;5.00;80.20
18794;DHT22;29610;49.022;12.114;2023-04-08T04:05:03;4.90;80.50
18794;DHT22;29610;49.022;12.114;2023-04-08T04:07:52;5.00;80.40
18794;DHT22;29610;49.022;12.114;2023-04-08T04:10:41;5.00;80.30
18794;DHT22;29610;49.022;12.114;2023-04-08T04:13:30;4.90;80.70
18794;DHT22;29610;49.022;12.114;2023-04-08T04:16:19;4.90;81.10
18794;DHT22;29610;49.022;12.114;2023-04-08T04:19:09;4.90;81.30
18794;DHT22;29610;49.022;12.114;2023-04-08T04:21:58;4.90;81.60
18794;DHT22;29610;49.022;12.114;2023-04-08T04:24:47;5.00;81.90
18794;DHT22;29610;49.022;12.114;2023-04-08T04:27:36;5.10;82.10
18794;DHT22;29610;49.022;12.114;2023-04-08T04:30:25;5.00;82.30
18794;DHT22;29610;49.022;12.114;2023-04-08T04:33:14;4.90;83.00
18794;DHT22;29610;49.022;12.114;2023-04-08T04:36:04;4.90;82.60
18794;DHT22;29610;49.022;12.114;2023-04-08T04:38:53;4.90;82.50
18794;DHT22;29610;49.022;12.114;2023-04-08T04:41:43;4.90;82.20
18794;DHT22;29610;49.022;12.114;2023-04-08T04:44:33;4.90;82.40
18794;DHT22;29610;49.022;12.114;2023-04-08T04:47:22;4.80;82.60
18794;DHT22;29610;49.022;12.114;2023-04-08T04:50:11;4.80;83.00
18794;DHT22;29610;49.022;12.114;2023-04-08T04:53:02;4.80;83.10
18794;DHT22;29610;49.022;12.114;2023-04-08T04:55:50;4.80;83.10
18794;DHT22;29610;49.022;12.114;2023-04-08T04:58:39;4.60;82.90
18794;DHT22;29610;49.022;12.114;2023-04-08T05:01:28;4.80;83.20
18794;DHT22;29610;49.022;12.114;2023-04-08T05:04:17;4.80;83.30
18794;DHT22;29610;49.022;12.114;2023-04-08T05:07:06;4.80;83.20
18794;DHT22;29610;49.022;12.114;2023-04-08T05:09:56;4.80;83.10
18794;DHT22;29610;49.022;12.114;2023-04-08T05:12:45;4.90;83.30
18794;DHT22;29610;49.022;12.114;2023-04-08T05:15:34;4.90;83.20
18794;DHT22;29610;49.022;12.114;2023-04-08T05:18:23;5.00;83.20
18794;DHT22;29610;49.022;12.114;2023-04-08T05:21:12;4.90;82.90
18794;DHT22;29610;49.022;12.114;2023-04-08T05:24:00;5.00;82.40
18794;DHT22;29610;49.022;12.114;2023-04-08T05:26:51;5.00;82.50
18794;DHT22;29610;49.022;12.114;2023-04-08T05:29:40;5.00;82.70
18794;DHT22;29610;49.022;12.114;2023-04-08T05:32:29;5.00;83.30
18794;DHT22;29610;49.022;12.114;2023-04-08T05:35:18;5.00;84.60
18794;DHT22;29610;49.022;12.114;2023-04-08T05:38:06;5.00;85.20
18794;DHT22;29610;49.022;12.114;2023-04-08T05:40:57;4.90;86.60
18794;DHT22;29610;49.022;12.114;2023-04-08T05:43:47;4.80;87.80
18794;DHT22;29610;49.022;12.114;2023-04-08T05:46:36;4.60;88.80
18794;DHT22;29610;49.022;12.114;2023-04-08T05:49:25;4.50;90.30
18794;DHT22;29610;49.022;12.114;2023-04-08T05:52:14;4.30;90.90
18794;DHT22;29610;49.022;12.114;2023-04-08T05:55:05;4.20;91.60
18794;DHT22;29610;49.022;12.114;2023-04-08T05:57:54;4.10;92.00
18794;DHT22;29610;49.022;12.114;2023-04-08T06:00:44;4.10;92.70
18794;DHT22;29610;49.022;12.114;2023-04-08T06:03:33;4.00;93.40
18794;DHT22;29610;49.022;12.114;2023-04-08T06:06:22;3.90;94.20
18794;DHT22;29610;49.022;12.114;2023-04-08T06:09:12;3.70;95.30
18794;DHT22;29610;49.022;12.114;2023-04-08T06:12:01;3.50;96.20
18794;DHT22;29610;49.022;12.114;2023-04-08T06:14:53;3.40;97.10
18794;DHT22;29610;49.022;12.114;2023-04-08T06:17:44;3.40;98.00
18794;DHT22;29610;49.022;12.114;2023-04-08T06:20:34;3.30;99.10
18794;DHT22;29610;49.022;12.114;2023-04-08T06:23:23;3.40;99.90
18794;DHT22;29610;49.022;12.114;2023-04-08T06:26:12;3.50;99.90
18794;DHT22;29610;49.022;12.114;2023-04-08T06:29:00;3.60;99.90
18794;DHT22;29610;49.022;12.114;2023-04-08T06:31:51;3.40;99.90
18794;DHT22;29610;49.022;12.114;2023-04-08T06:34:41;3.40;99.90
18794;DHT22;29610;49.022;12.114;2023-04-08T06:37:32;3.50;99.90
18794;DHT22;29610;49.022;12.114;2023-04-08T06:40:25;3.50;99.90
18794;DHT22;29610;49.022;12.114;2023-04-08T06:43:13;3.50;99.90
18794;DHT22;29610;49.022;12.114;2023-04-08T06:46:03;3.40;99.90
18794;DHT22;29610;49.022;12.114;2023-04-08T06:48:52;3.30;99.90
18794;DHT22;29610;49.022;12.114;2023-04-08T06:51:43;3.30;99.90
18794;DHT22;29610;49.022;12.114;2023-04-08T06:54:31;3.30;99.90
18794;DHT22;29610;49.022;12.114;2023-04-08T06:57:20;3.40;99.90
18794;DHT22;29610;49.022;12.114;2023-04-08T07:00:10;3.40;99.90
18794;DHT22;29610;49.022;12.114;2023-04-08T07:02:59;3.40;99.90
18794;DHT22;29610;49.022;12.114;2023-04-08T07:05:48;3.30;99.90
18794;DHT22;29610;49.022;12.114;2023-04-08T07:08:39;3.30;99.90
18794;DHT22;29610;49.022;12.114;2023-04-08T07:11:28;3.50;99.90
18794;DHT22;29610;49.022;12.114;2023-04-08T07:14:17;3.40;99.90
18794;DHT22;29610;49.022;12.114;2023-04-08T07:17:06;3.50;99.90
18794;DHT22;29610;49.022;12.114;2023-04-08T07:19:55;3.50;99.90
18794;DHT22;29610;49.022;12.114;2023-04-08T07:22:44;3.50;99.90
18794;DHT22;29610;49.022;12.114;2023-04-08T07:25:34;3.50;99.90
18794;DHT22;29610;49.022;12.114;2023-04-08T07:28:23;3.50;99.90
18794;DHT22;29610;49.022;12.114;2023-04-08T07:31:16;3.60;99.90
18794;DHT22;29610;49.022;12.114;2023-04-08T07:34:05;3.70;99.90
18794;DHT22;29610;49.022;12.114;2023-04-08T07:36:54;3.90;99.90
18794;DHT22;29610;49.022;12.114;2023-04-08T07:39:43;3.90;99.90
18794;DHT22;29610;49.022;12.114;2023-04-08T07:42:33;4.00;99.90
18794;DHT22;29610;49.022;12.114;2023-04-08T07:45:22;4.10;99.90
18794;DHT22;29610;49.022;12.114;2023-04-08T07:48:11;4.10;99.90
18794;DHT22;29610;49.022;12.114;2023-04-08T07:51:02;4.10;99.90
18794;DHT22;29610;49.022;12.114;2023-04-08T07:53:58;4.10;99.90
18794;DHT22;29610;49.022;12.114;2023-04-08T07:56:47;4.10;99.90
18794;DHT22;29610;49.022;12.114;2023-04-08T07:59:37;4.10;99.90
18794;DHT22;29610;49.022;12.114;2023-04-08T08:02:25;4.10;99.90
18794;DHT22;29610;49.022;12.114;2023-04-08T08:05:15;4.10;99.90
18794;DHT22;29610;49.022;12.114;2023-04-08T08:08:04;4.20;99.90
18794;DHT22;29610;49.022;12.114;2023-04-08T08:10:54;4.20;99.90
18794;DHT22;29610;49.022;12.114;2023-04-08T08:13:43;4.20;99.90
18794;DHT22;29610;49.022;12.114;2023-04-08T08:16:33;4.40;99.90
18794;DHT22;29610;49.022;12.114;2023-04-08T08:19:23;4.50;99.90
18794;DHT22;29610;49.022;12.114;2023-04-08T08:22:11;4.70;99.90
18794;DHT22;29610;49.022;12.114;2023-04-08T08:25:00;4.60;99.90
18794;DHT22;29610;49.022;12.114;2023-04-08T08:27:50;4.70;99.90
18794;DHT22;29610;49.022;12.114;2023-04-08T08:30:39;4.70;99.90
18794;DHT22;29610;49.022;12.114;2023-04-08T08:33:30;4.80;99.90
18794;DHT22;29610;49.022;12.114;2023-04-08T08:36:19;4.80;99.90
18794;DHT22;29610;49.022;12.114;2023-04-08T08:39:08;4.80;99.90
18794;DHT22;29610;49.022;12.114;2023-04-08T08:41:57;4.70;99.90
18794;DHT22;29610;49.022;12.114;2023-04-08T08:44:46;4.90;99.90
18794;DHT22;29610;49.022;12.114;2023-04-08T08:47:35;5.00;99.90
18794;DHT22;29610;49.022;12.114;2023-04-08T08:50:25;5.00;99.90
18794;DHT22;29610;49.022;12.114;2023-04-08T08:53:15;5.10;99.90
18794;DHT22;29610;49.022;12.114;2023-04-08T08:56:08;5.20;99.90
18794;DHT22;29610;49.022;12.114;2023-04-08T08:59:04;5.30;99.90
18794;DHT22;29610;49.022;12.114;2023-04-08T09:01:53;5.30;99.90
18794;DHT22;29610;49.022;12.114;2023-04-08T09:04:55;5.30;99.90
18794;DHT22;29610;49.022;12.114;2023-04-08T09:07:47;5.20;99.90
18794;DHT22;29610;49.022;12.114;2023-04-08T09:10:36;5.20;99.90
18794;DHT22;29610;49.022;12.114;2023-04-08T09:13:34;5.30;99.90
18794;DHT22;29610;49.022;12.114;2023-04-08T09:16:24;5.30;99.90
18794;DHT22;29610;49.022;12.114;2023-04-08T09:19:13;5.40;99.90
18794;DHT22;29610;49.022;12.114;2023-04-08T09:22:06;5.50;99.90
18794;DHT22;29610;49.022;12.114;2023-04-08T09:24:58;5.60;99.90
18794;DHT22;29610;49.022;12.114;2023-04-08T09:27:47;5.70;99.90
18794;DHT22;29610;49.022;12.114;2023-04-08T09:30:36;5.60;99.90
18794;DHT22;29610;49.022;12.114;2023-04-08T09:33:29;5.70;99.90
18794;DHT22;29610;49.022;12.114;2023-04-08T09:36:19;5.80;99.90
18794;DHT22;29610;49.022;12.114;2023-04-08T09:39:08;5.90;99.90
18794;DHT22;29610;49.022;12.114;2023-04-08T09:41:59;5.90;99.90
18794;DHT22;29610;49.022;12.114;2023-04-08T09:44:53;5.80;99.90
18794;DHT22;29610;49.022;12.114;2023-04-08T09:47:51;6.10;99.90
18794;DHT22;29610;49.022;12.114;2023-04-08T09:50:48;6.00;99.90
18794;DHT22;29610;49.022;12.114;2023-04-08T09:53:42;6.00;99.90
18794;DHT22;29610;49.022;12.114;2023-04-08T09:56:42;6.00;99.90
18794;DHT22;29610;49.022;12.114;2023-04-08T09:59:37;5.90;99.90
18794;DHT22;29610;49.022;12.114;2023-04-08T10:02:39;5.90;99.90
18794;DHT22;29610;49.022;12.114;2023-04-08T10:05:36;5.90;99.90
18794;DHT22;29610;49.022;12.114;2023-04-08T10:08:29;5.70;99.90
18794;DHT22;29610;49.022;12.114;2023-04-08T10:11:19;5.80;99.90
18794;DHT22;29610;49.022;12.114;2023-04-08T10:14:08;5.80;99.90
18794;DHT22;29610;49.022;12.114;2023-04-08T10:17:24;5.90;99.90
18794;DHT22;29610;49.022;12.114;2023-04-08T10:20:41;5.90;99.90
18794;DHT22;29610;49.022;12.114;2023-04-08T10:23:54;6.10;99.90
18794;DHT22;29610;49.022;12.114;2023-04-08T10:26:46;6.00;99.90
18794;DHT22;29610;49.022;12.114;2023-04-08T10:29:35;6.00;99.90
18794;DHT22;29610;49.022;12.114;2023-04-08T10:32:28;6.00;99.90
18794;DHT22;29610;49.022;12.114;2023-04-08T10:35:17;6.10;99.90
18794;DHT22;29610;49.022;12.114;2023-04-08T10:38:17;6.10;99.90
18794;DHT22;29610;49.022;12.114;2023-04-08T10:41:07;6.20;99.90
18794;DHT22;29610;49.022;12.114;2023-04-08T10:43:58;6.10;99.90
18794;DHT22;29610;49.022;12.114;2023-04-08T10:46:48;6.20;99.90
18794;DHT22;29610;49.022;12.114;2023-04-08T10:49:39;6.30;99.90
18794;DHT22;29610;49.022;12.114;2023-04-08T10:52:30;6.30;99.90
18794;DHT22;29610;49.022;12.114;2023-04-08T10:55:22;6.40;99.90
18794;DHT22;29610;49.022;12.114;2023-04-08T10:58:11;6.40;99.90
18794;DHT22;29610;49.022;12.114;2023-04-08T11:01:03;6.40;99.90
18794;DHT22;29610;49.022;12.114;2023-04-08T11:03:54;6.20;99.90
18794;DHT22;29610;49.022;12.114;2023-04-08T11:06:45;6.00;99.90
18794;DHT22;29610;49.022;12.114;2023-04-08T11:09:34;6.10;99.90
18794;DHT22;29610;49.022;12.114;2023-04-08T11:12:24;6.30;99.90
18794;DHT22;29610;49.022;12.114;2023-04-08T11:15:14;6.50;99.90
18794;DHT22;29610;49.022;12.114;2023-04-08T11:18:03;6.40;99.90
18794;DHT22;29610;49.022;12.114;2023-04-08T11:20:53;6.40;99.90
18794;DHT22;29610;49.022;12.114;2023-04-08T11:23:48;6.50;99.90
18794;DHT22;29610;49.022;12.114;2023-04-08T11:26:39;6.50;99.90
18794;DHT22;29610;49.022;12.114;2023-04-08T11:29:29;6.60;99.90
18794;DHT22;29610;49.022;12.114;2023-04-08T11:32:19;6.70;99.90
18794;DHT22;29610;49.022;12.114;2023-04-08T11:35:08;6.70;99.90
18794;DHT22;29610;49.022;12.114;2023-04-08T11:37:58;6.80;99.90
18794;DHT22;29610;49.022;12.114;2023-04-08T11:40:53;6.90;99.90
18794;DHT22;29610;49.022;12.114;2023-04-08T11:43:53;6.90;99.90
18794;DHT22;29610;49.022;12.114;2023-04-08T11:46:51;6.90;99.90
18794;DHT22;29610;49.022;12.114;2023-04-08T11:49:45;6.90;99.90
18794;DHT22;29610;49.022;12.114;2023-04-08T11:52:42;6.90;99.90
18794;DHT22;29610;49.022;12.114;2023-04-08T11:55:32;6.90;99.90
18794;DHT22;29610;49.022;12.114;2023-04-08T11:58:22;7.10;99.90
18794;DHT22;29610;49.022;12.114;2023-04-08T12:01:11;7.00;99.90
18794;DHT22;29610;49.022;12.114;2023-04-08T12:04:00;7.30;99.90
18794;DHT22;29610;49.022;12.114;2023-04-08T12:06:50;7.30;99.90
18794;DHT22;29610;49.022;12.114;2023-04-08T12:09:39;7.20;99.70
18794;DHT22;29610;49.022;12.114;2023-04-08T12:12:28;7.10;99.90
18794;DHT22;29610;49.022;12.114;2023-04-08T12:15:18;7.00;99.90
18794;DHT22;29610;49.022;12.114;2023-04-08T12:18:07;7.10;99.90
18794;DHT22;29610;49.022;12.114;2023-04-08T12:20:56;7.10;99.90
18794;DHT22;29610;49.022;12.114;2023-04-08T12:23:45;7.10;99.90
18794;DHT22;29610;49.022;12.114;2023-04-08T12:26:34;7.10;99.90
18794;DHT22;29610;49.022;12.114;2023-04-08T12:29:23;7.20;99.90
18794;DHT22;29610;49.022;12.114;2023-04-08T12:32:13;7.00;99.80
18794;DHT22;29610;49.022;12.114;2023-04-08T12:35:02;6.90;99.90
18794;DHT22;29610;49.022;12.114;2023-04-08T12:37:51;7.00;99.90
18794;DHT22;29610;49.022;12.114;2023-04-08T12:40:40;7.00;99.90
18794;DHT22;29610;49.022;12.114;2023-04-08T12:43:29;7.10;99.90
18794;DHT22;29610;49.022;12.114;2023-04-08T12:46:19;7.00;99.90
18794;DHT22;29610;49.022;12.114;2023-04-08T12:49:09;7.10;99.90
18794;DHT22;29610;49.022;12.114;2023-04-08T12:51:58;7.10;99.90
18794;DHT22;29610;49.022;12.114;2023-04-08T12:54:47;7.10;99.90
18794;DHT22;29610;49.022;12.114;2023-04-08T12:57:36;6.90;99.90
18794;DHT22;29610;49.022;12.114;2023-04-08T13:00:24;6.90;99.90
18794;DHT22;29610;49.022;12.114;2023-04-08T13:03:13;6.90;99.90
18794;DHT22;29610;49.022;12.114;2023-04-08T13:06:05;6.90;99.90
18794;DHT22;29610;49.022;12.114;2023-04-08T13:08:54;6.90;99.90
18794;DHT22;29610;49.022;12.114;2023-04-08T13:11:43;6.90;99.90
18794;DHT22;29610;49.022;12.114;2023-04-08T13:14:32;6.80;99.90
18794;DHT22;29610;49.022;12.114;2023-04-08T13:17:21;6.90;99.90
18794;DHT22;29610;49.022;12.114;2023-04-08T13:20:10;7.20;99.90
18794;DHT22;29610;49.022;12.114;2023-04-08T13:23:00;7.60;99.90
18794;DHT22;29610;49.022;12.114;2023-04-08T13:25:49;8.00;99.90
18794;DHT22;29610;49.022;12.114;2023-04-08T13:28:38;8.30;99.70
18794;DHT22;29610;49.022;12.114;2023-04-08T13:31:43;8.50;99.20
18794;DHT22;29610;49.022;12.114;2023-04-08T13:34:32;8.50;98.20
18794;DHT22;29610;49.022;12.114;2023-04-08T13:37:21;8.50;97.80
18794;DHT22;29610;49.022;12.114;2023-04-08T13:40:11;8.50;98.40
18794;DHT22;29610;49.022;12.114;2023-04-08T13:43:00;8.70;97.70
18794;DHT22;29610;49.022;12.114;2023-04-08T13:45:49;8.90;97.10
18794;DHT22;29610;49.022;12.114;2023-04-08T13:48:38;8.90;97.40
18794;DHT22;29610;49.022;12.114;2023-04-08T13:51:27;8.30;96.00
18794;DHT22;29610;49.022;12.114;2023-04-08T13:54:17;8.90;95.80
18794;DHT22;29610;49.022;12.114;2023-04-08T13:57:08;9.10;96.10
18794;DHT22;29610;49.022;12.114;2023-04-08T13:59:57;8.80;96.10
18794;DHT22;29610;49.022;12.114;2023-04-08T14:02:46;8.50;96.00
18794;DHT22;29610;49.022;12.114;2023-04-08T14:05:37;8.60;96.40
18794;DHT22;29610;49.022;12.114;2023-04-08T14:08:26;8.50;95.90
18794;DHT22;29610;49.022;12.114;2023-04-08T14:11:14;8.60;95.50
18794;DHT22;29610;49.022;12.114;2023-04-08T14:14:05;8.70;95.70
18794;DHT22;29610;49.022;12.114;2023-04-08T14:16:54;8.60;94.80
18794;DHT22;29610;49.022;12.114;2023-04-08T14:19:43;8.70;94.90
18794;DHT22;29610;49.022;12.114;2023-04-08T14:22:32;8.90;94.90
18794;DHT22;29610;49.022;12.114;2023-04-08T14:25:21;8.80;94.20
18794;DHT22;29610;49.022;12.114;2023-04-08T14:28:10;8.80;94.60
18794;DHT22;29610;49.022;12.114;2023-04-08T14:31:00;8.70;94.30
18794;DHT22;29610;49.022;12.114;2023-04-08T14:33:50;8.70;94.20
18794;DHT22;29610;49.022;12.114;2023-04-08T14:36:39;8.90;94.00
18794;DHT22;29610;49.022;12.114;2023-04-08T14:39:28;8.90;94.10
18794;DHT22;29610;49.022;12.114;2023-04-08T14:42:17;8.90;93.80
18794;DHT22;29610;49.022;12.114;2023-04-08T14:45:06;8.90;93.90
18794;DHT22;29610;49.022;12.114;2023-04-08T14:47:58;8.70;93.60
18794;DHT22;29610;49.022;12.114;2023-04-08T14:50:47;8.60;93.80
18794;DHT22;29610;49.022;12.114;2023-04-08T14:53:36;8.60;93.60
18794;DHT22;29610;49.022;12.114;2023-04-08T14:56:25;8.40;93.70
18794;DHT22;29610;49.022;12.114;2023-04-08T14:59:13;8.30;94.20
18794;DHT22;29610;49.022;12.114;2023-04-08T15:02:02;8.10;94.10
18794;DHT22;29610;49.022;12.114;2023-04-08T15:04:53;8.10;93.70
18794;DHT22;29610;49.022;12.114;2023-04-08T15:07:41;8.10;93.90
18794;DHT22;29610;49.022;12.114;2023-04-08T15:10:31;8.30;94.20
18794;DHT22;29610;49.022;12.114;2023-04-08T15:13:19;8.40;93.60
18794;DHT22;29610;49.022;12.114;2023-04-08T15:16:09;8.30;93.40
18794;DHT22;29610;49.022;12.114;2023-04-08T15:18:58;8.60;93.80
18794;DHT22;29610;49.022;12.114;2023-04-08T15:21:48;8.60;93.90
18794;DHT22;29610;49.022;12.114;2023-04-08T15:24:37;8.30;93.70
18794;DHT22;29610;49.022;12.114;2023-04-08T15:27:26;8.20;93.30
18794;DHT22;29610;49.022;12.114;2023-04-08T15:30:15;8.30;93.50
18794;DHT22;29610;49.022;12.114;2023-04-08T15:33:10;8.20;93.60
18794;DHT22;29610;49.022;12.114;2023-04-08T15:35:59;8.20;93.70
18794;DHT22;29610;49.022;12.114;2023-04-08T15:38:51;8.20;93.50
18794;DHT22;29610;49.022;12.114;2023-04-08T15:41:40;8.30;93.50
18794;DHT22;29610;49.022;12.114;2023-04-08T15:44:30;8.50;93.70
18794;DHT22;29610;49.022;12.114;2023-04-08T15:47:19;8.20;93.50
18794;DHT22;29610;49.022;12.114;2023-04-08T15:50:08;8.10;93.90
18794;DHT22;29610;49.022;12.114;2023-04-08T15:53:00;8.30;93.70
18794;DHT22;29610;49.022;12.114;2023-04-08T15:55:50;8.40;93.90
18794;DHT22;29610;49.022;12.114;2023-04-08T15:58:39;8.50;93.80
18794;DHT22;29610;49.022;12.114;2023-04-08T16:01:27;8.40;93.70
18794;DHT22;29610;49.022;12.114;2023-04-08T16:04:17;8.40;94.10
18794;DHT22;29610;49.022;12.114;2023-04-08T16:07:06;8.40;93.60
18794;DHT22;29610;49.022;12.114;2023-04-08T16:09:54;8.20;94.00
18794;DHT22;29610;49.022;12.114;2023-04-08T16:12:45;8.20;94.20
18794;DHT22;29610;49.022;12.114;2023-04-08T16:15:34;8.30;93.90
18794;DHT22;29610;49.022;12.114;2023-04-08T16:18:23;8.20;93.90
18794;DHT22;29610;49.022;12.114;2023-04-08T16:21:12;8.00;94.20
18794;DHT22;29610;49.022;12.114;2023-04-08T16:24:01;8.10;94.40
18794;DHT22;29610;49.022;12.114;2023-04-08T16:26:51;8.10;94.20
18794;DHT22;29610;49.022;12.114;2023-04-08T16:29:41;8.20;94.40
18794;DHT22;29610;49.022;12.114;2023-04-08T16:32:30;8.20;94.40
18794;DHT22;29610;49.022;12.114;2023-04-08T16:35:19;8.10;94.50
18794;DHT22;29610;49.022;12.114;2023-04-08T16:38:08;8.10;94.10
18794;DHT22;29610;49.022;12.114;2023-04-08T16:40:58;8.10;94.30
18794;DHT22;29610;49.022;12.114;2023-04-08T16:43:47;8.10;94.30
18794;DHT22;29610;49.022;12.114;2023-04-08T16:46:37;8.00;94.30
18794;DHT22;29610;49.022;12.114;2023-04-08T16:49:26;8.00;94.50
18794;DHT22;29610;49.022;12.114;2023-04-08T16:52:17;8.00;94.90
18794;DHT22;29610;49.022;12.114;2023-04-08T16:55:07;8.00;94.70
18794;DHT22;29610;49.022;12.114;2023-04-08T16:57:56;8.00;94.70
18794;DHT22;29610;49.022;12.114;2023-04-08T17:00:45;8.00;94.60
18794;DHT22;29610;49.022;12.114;2023-04-08T17:03:35;8.00;94.70
18794;DHT22;29610;49.022;12.114;2023-04-08T17:06:25;8.10;94.90
18794;DHT22;29610;49.022;12.114;2023-04-08T17:09:14;7.90;94.90
18794;DHT22;29610;49.022;12.114;2023-04-08T17:12:03;7.80;94.20
18794;DHT22;29610;49.022;12.114;2023-04-08T17:14:53;7.60;94.00
18794;DHT22;29610;49.022;12.114;2023-04-08T17:17:42;7.50;94.10
18794;DHT22;29610;49.022;12.114;2023-04-08T17:20:32;7.50;94.40
18794;DHT22;29610;49.022;12.114;2023-04-08T17:23:21;7.40;94.80
18794;DHT22;29610;49.022;12.114;2023-04-08T17:26:10;7.30;94.70
18794;DHT22;29610;49.022;12.114;2023-04-08T17:28:59;7.20;94.80
18794;DHT22;29610;49.022;12.114;2023-04-08T17:31:48;7.10;94.80
18794;DHT22;29610;49.022;12.114;2023-04-08T17:34:37;7.10;94.90
18794;DHT22;29610;49.022;12.114;2023-04-08T17:37:28;7.00;95.00
18794;DHT22;29610;49.022;12.114;2023-04-08T17:40:17;6.90;94.60
18794;DHT22;29610;49.022;12.114;2023-04-08T17:43:06;6.90;94.80
18794;DHT22;29610;49.022;12.114;2023-04-08T17:45:58;6.90;94.90
18794;DHT22;29610;49.022;12.114;2023-04-08T17:48:47;6.80;95.00
18794;DHT22;29610;49.022;12.114;2023-04-08T17:51:36;6.80;95.00
18794;DHT22;29610;49.022;12.114;2023-04-08T17:54:27;6.70;94.80
18794;DHT22;29610;49.022;12.114;2023-04-08T17:57:17;6.70;95.00